createdAt,value
2022-08-05T00:01:27.747Z,6.30
2022-08-05T00:03:57.128Z,9.43
2022-08-05T00:06:29.517Z,7.95
2022-08-05T00:09:00.689Z,5.95
2022-08-05T00:11:34.481Z,5.72
2022-08-05T00:14:11.993Z,8.30
2022-08-05T00:16:52.756Z,7.70
2022-08-05T00:19:33.375Z,8.10
2022-08-05T00:22:11.231Z,5.75
2022-08-05T00:24:38.730Z,5.82
2022-08-05T00:27:10.387Z,6.95
2022-08-05T00:29:43.446Z,5.75
2022-08-05T00:32:15.483Z,6.63
2022-08-05T00:35:05.197Z,8.52
2022-08-05T00:37:50.496Z,2.95
2022-08-05T00:40:27.086Z,9.98
2022-08-05T00:43:00.203Z,5.63
2022-08-05T00:45:42.762Z,9.73
2022-08-05T00:48:13.404Z,9.75
2022-08-05T00:50:44.271Z,8.30
2022-08-05T00:56:00.535Z,8.68
2022-08-05T00:58:27.771Z,6.47
2022-08-05T01:00:54.858Z,3.92
2022-08-05T01:03:22.862Z,6.90
2022-08-05T01:05:51.624Z,7.00
2022-08-05T01:08:42.157Z,7.95
2022-08-05T01:11:36.704Z,6.03
2022-08-05T01:14:12.026Z,6.82
2022-08-05T01:16:53.975Z,4.43
2022-08-05T01:20:02.276Z,5.35
2022-08-05T01:22:47.031Z,7.50
2022-08-05T01:25:40.668Z,5.53
2022-08-05T01:28:23.724Z,6.93
2022-08-05T01:31:06.470Z,7.47
2022-08-05T01:33:49.133Z,5.47
2022-08-05T01:36:28.246Z,5.45
2022-08-05T01:38:56.628Z,4.45
2022-08-05T01:41:30.921Z,7.43
2022-08-05T01:44:00.802Z,7.20
2022-08-05T01:46:41.896Z,7.15
2022-08-05T01:49:23.949Z,6.25
2022-08-05T01:51:58.112Z,6.45
2022-08-05T01:54:33.781Z,4.03
2022-08-05T01:58:13.191Z,7.63
2022-08-05T02:00:11.737Z,6.05
2022-08-05T02:02:54.706Z,6.95
2022-08-05T02:08:01.099Z,6.07
2022-08-05T02:10:36.510Z,6.60
2022-08-05T02:13:16.132Z,7.55
2022-08-05T02:16:32.944Z,3.17
2022-08-05T02:19:07.461Z,8.20
2022-08-05T02:21:42.961Z,6.30
2022-08-05T02:24:18.707Z,5.43
2022-08-05T02:26:54.830Z,10.73
2022-08-05T02:29:58.864Z,7.87
2022-08-05T02:32:23.737Z,6.22
2022-08-05T02:35:02.108Z,5.43
2022-08-05T02:37:46.375Z,6.40
2022-08-05T02:40:17.120Z,6.40
2022-08-05T02:42:52.809Z,7.28
2022-08-05T02:45:24.152Z,4.80
2022-08-05T02:48:07.389Z,5.90
2022-08-05T02:50:44.060Z,7.63
2022-08-05T02:53:19.083Z,7.00
2022-08-05T02:55:54.265Z,8.07
2022-08-05T02:58:27.517Z,11.65
2022-08-05T03:01:00.330Z,6.75
2022-08-05T03:03:33.809Z,6.57
2022-08-05T03:06:55.096Z,4.68
2022-08-05T03:08:52.321Z,5.80
2022-08-05T03:11:56.689Z,6.28
2022-08-05T03:14:13.571Z,10.38
2022-08-05T03:16:41.083Z,15.30
2022-08-05T03:19:17.152Z,5.57
2022-08-05T03:21:55.904Z,6.63
2022-08-05T03:24:29.563Z,4.35
2022-08-05T03:26:58.680Z,8.23
2022-08-05T03:29:46.065Z,6.47
2022-08-05T03:32:15.269Z,7.68
2022-08-05T03:34:51.158Z,3.45
2022-08-05T03:37:19.275Z,6.40
2022-08-05T03:40:01.257Z,10.55
2022-08-05T03:42:32.975Z,7.60
2022-08-05T03:45:22.460Z,5.93
2022-08-05T03:47:50.784Z,6.60
2022-08-05T03:50:18.287Z,12.32
2022-08-05T03:55:34.448Z,7.72
2022-08-05T03:56:12.029Z,8.82
2022-08-05T03:58:46.820Z,6.80
2022-08-05T04:01:17.633Z,6.35
2022-08-05T04:04:09.367Z,3.55
2022-08-05T04:06:38.226Z,5.95
2022-08-05T04:09:15.784Z,6.65
2022-08-05T04:11:53.814Z,4.90
2022-08-05T04:14:30.074Z,6.22
2022-08-05T04:17:00.276Z,6.70
2022-08-05T04:19:29.368Z,7.68
2022-08-05T04:22:09.085Z,4.50
2022-08-05T04:24:52.836Z,6.63
2022-08-05T04:27:33.235Z,7.28
2022-08-05T04:30:08.897Z,6.75
2022-08-05T04:32:36.452Z,5.82
2022-08-05T04:35:05.049Z,6.20
2022-08-05T04:38:00.736Z,8.20
2022-08-05T04:40:20.229Z,7.07
2022-08-05T04:42:47.142Z,8.50
2022-08-05T04:45:31.087Z,9.35
2022-08-05T04:48:16.331Z,6.75
2022-08-05T04:51:02.525Z,7.53
2022-08-05T04:53:38.863Z,6.32
2022-08-05T04:56:32.341Z,6.22
2022-08-05T04:58:56.850Z,5.72
2022-08-05T05:02:05.574Z,11.43
2022-08-05T05:04:10.801Z,9.02
2022-08-05T05:06:44.221Z,7.88
2022-08-05T05:09:14.310Z,8.27
2022-08-05T05:11:54.011Z,6.45
2022-08-05T05:14:28.170Z,10.75
2022-08-05T05:17:00.285Z,7.00
2022-08-05T05:19:37.013Z,9.43
2022-08-05T05:22:24.102Z,9.30
2022-08-05T05:25:00.270Z,8.80
2022-08-05T05:27:48.479Z,7.38
2022-08-05T05:30:30.554Z,7.18
2022-08-05T05:33:08.792Z,8.65
2022-08-05T05:35:44.862Z,5.43
2022-08-05T05:38:13.250Z,7.00
2022-08-05T05:40:49.566Z,7.90
2022-08-05T05:43:27.723Z,6.38
2022-08-05T05:46:12.228Z,7.25
2022-08-05T05:48:44.000Z,6.05
2022-08-05T05:51:15.501Z,6.93
2022-08-05T05:53:54.323Z,5.07
2022-08-05T05:56:31.710Z,6.65
2022-08-05T05:59:06.415Z,5.68
2022-08-05T06:01:39.514Z,6.88
2022-08-05T06:06:36.105Z,8.00
2022-08-05T06:09:07.683Z,6.13
2022-08-05T06:11:35.256Z,4.50
2022-08-05T06:14:06.459Z,8.55
2022-08-05T06:16:37.250Z,4.45
2022-08-05T06:19:07.445Z,6.07
2022-08-05T06:21:38.408Z,9.05
2022-08-05T06:24:12.248Z,5.82
2022-08-05T06:26:52.114Z,7.15
2022-08-05T06:29:43.114Z,8.63
2022-08-05T06:32:20.880Z,6.40
2022-08-05T06:34:53.610Z,5.53
2022-08-05T06:37:56.656Z,8.07
2022-08-05T06:40:12.062Z,5.45
2022-08-05T06:42:39.941Z,4.85
2022-08-05T06:45:09.411Z,2.97
2022-08-05T06:48:35.976Z,10.40
2022-08-05T06:50:24.989Z,4.55
2022-08-05T06:52:58.551Z,5.75
2022-08-05T06:55:36.496Z,7.28
2022-08-05T06:58:29.030Z,3.92
2022-08-05T07:00:51.464Z,3.97
2022-08-05T07:03:18.723Z,5.90
2022-08-05T07:05:46.436Z,7.70
2022-08-05T07:08:13.617Z,4.75
2022-08-05T07:10:52.436Z,5.72
2022-08-05T07:13:59.101Z,7.60
2022-08-05T07:18:01.976Z,5.03
2022-08-05T07:22:17.315Z,5.93
2022-08-05T07:24:53.666Z,4.57
2022-08-05T07:27:21.416Z,7.03
2022-08-05T07:30:24.232Z,3.63
2022-08-05T07:32:38.905Z,4.38
2022-08-05T07:36:02.248Z,4.45
2022-08-05T07:37:57.268Z,5.70
2022-08-05T07:40:26.753Z,3.35
2022-08-05T07:42:58.959Z,3.95
2022-08-05T07:45:56.451Z,5.72
2022-08-05T07:48:13.040Z,7.30
2022-08-05T07:50:40.338Z,7.78
2022-08-05T07:53:10.520Z,8.52
2022-08-05T07:55:44.282Z,4.60
2022-08-05T07:58:57.756Z,4.65
2022-08-05T08:01:14.262Z,5.40
2022-08-05T08:03:44.608Z,3.95
2022-08-05T08:06:12.050Z,4.22
2022-08-05T08:08:39.022Z,4.72
2022-08-05T08:11:09.008Z,6.05
2022-08-05T08:13:42.735Z,5.90
2022-08-05T08:16:50.084Z,4.53
2022-08-05T08:19:03.367Z,4.03
2022-08-05T08:21:33.348Z,4.63
2022-08-05T08:24:04.980Z,6.68
2022-08-05T08:26:33.030Z,3.70
2022-08-05T08:29:24.564Z,5.10
2022-08-05T08:31:48.769Z,5.60
2022-08-05T08:34:30.521Z,6.97
2022-08-05T08:37:05.057Z,5.72
2022-08-05T08:39:32.810Z,5.75
2022-08-05T08:42:10.770Z,5.78
2022-08-05T08:45:19.289Z,5.90
2022-08-05T08:48:06.932Z,4.22
2022-08-05T08:51:03.599Z,7.35
2022-08-05T08:53:23.113Z,6.13
2022-08-05T08:56:02.666Z,7.57
2022-08-05T08:58:43.875Z,9.07
2022-08-05T09:01:17.478Z,7.07
2022-08-05T09:03:48.207Z,7.10
2022-08-05T09:06:20.421Z,6.25
2022-08-05T09:08:48.509Z,8.75
2022-08-05T09:11:15.585Z,6.40
2022-08-05T09:14:00.816Z,6.95
2022-08-05T09:16:33.192Z,5.05
2022-08-05T09:19:01.132Z,8.48
2022-08-05T09:24:20.762Z,6.32
2022-08-05T09:26:53.762Z,7.07
2022-08-05T09:29:20.740Z,9.55
2022-08-05T09:32:40.126Z,7.82
2022-08-05T09:34:55.795Z,7.57
2022-08-05T09:38:12.594Z,8.48
2022-08-05T09:40:33.678Z,12.30
2022-08-05T09:43:01.310Z,10.88
2022-08-05T09:46:07.312Z,9.52
2022-08-05T09:48:31.581Z,11.77
2022-08-05T09:51:04.721Z,8.77
2022-08-05T09:53:54.443Z,15.75
2022-08-05T09:56:31.135Z,12.13
2022-08-05T09:59:08.319Z,9.80
2022-08-05T10:01:39.643Z,13.20
2022-08-05T10:04:16.052Z,13.77
2022-08-05T10:06:59.528Z,12.55
2022-08-05T10:09:29.598Z,8.52
2022-08-05T10:12:30.147Z,7.88
2022-08-05T10:15:34.621Z,10.10
2022-08-05T10:18:03.531Z,14.48
2022-08-05T10:20:32.661Z,8.20
2022-08-05T10:23:01.149Z,8.85
2022-08-05T10:25:28.322Z,8.27
2022-08-05T10:28:13.551Z,5.78
2022-08-05T10:32:48.585Z,5.97
2022-08-05T10:33:35.216Z,4.88
2022-08-05T10:36:04.457Z,5.97
2022-08-05T10:38:33.070Z,6.63
2022-08-05T10:41:03.817Z,11.38
2022-08-05T10:43:50.256Z,4.50
2022-08-05T10:46:23.962Z,6.03
2022-08-05T10:49:09.834Z,6.90
2022-08-05T10:51:48.680Z,6.07
2022-08-05T10:55:06.188Z,5.20
2022-08-05T10:57:33.876Z,4.97
2022-08-05T11:00:29.870Z,8.35
2022-08-05T11:03:25.349Z,4.47
2022-08-05T11:06:08.293Z,3.58
2022-08-05T11:09:10.652Z,5.13
2022-08-05T11:11:52.073Z,6.25
2022-08-05T11:15:01.481Z,5.32
2022-08-05T11:17:59.992Z,4.15
2022-08-05T11:20:48.412Z,4.35
2022-08-05T11:24:02.389Z,6.03
2022-08-05T11:26:32.877Z,4.32
2022-08-05T11:29:12.221Z,6.55
2022-08-05T11:31:57.291Z,5.57
2022-08-05T11:34:47.585Z,7.72
2022-08-05T11:38:30.691Z,3.72
2022-08-05T11:41:00.799Z,3.72
2022-08-05T11:44:04.444Z,5.75
2022-08-05T11:46:32.702Z,6.85
2022-08-05T11:49:01.410Z,4.70
2022-08-05T11:51:44.394Z,4.18
2022-08-05T11:54:33.215Z,4.15
2022-08-05T11:57:08.143Z,6.28
2022-08-05T11:59:50.646Z,3.80
2022-08-05T12:02:30.457Z,3.85
2022-08-05T12:05:06.804Z,4.65
2022-08-05T12:08:03.757Z,5.65
2022-08-05T12:10:43.072Z,4.72
2022-08-05T12:13:28.161Z,4.07
2022-08-05T12:16:14.986Z,4.00
2022-08-05T12:18:48.747Z,5.43
2022-08-05T12:21:19.876Z,4.38
2022-08-05T12:23:57.416Z,6.28
2022-08-05T12:26:43.859Z,5.97
2022-08-05T12:29:16.327Z,7.25
2022-08-05T12:31:57.316Z,6.90
2022-08-05T12:34:32.405Z,5.03
2022-08-05T12:37:10.895Z,5.43
2022-08-05T12:39:51.420Z,6.07
2022-08-05T12:42:20.571Z,4.20
2022-08-05T12:44:47.978Z,5.35
2022-08-05T12:47:28.809Z,2.97
2022-08-05T12:50:04.278Z,4.32
2022-08-05T12:52:39.170Z,2.55
2022-08-05T12:55:23.823Z,4.47
2022-08-05T12:58:51.532Z,5.05
2022-08-05T13:02:03.019Z,4.78
2022-08-05T13:03:42.431Z,4.50
2022-08-05T13:06:17.704Z,2.65
2022-08-05T13:08:51.488Z,1.55
2022-08-05T13:11:59.655Z,3.83
2022-08-05T13:14:14.893Z,2.83
2022-08-05T13:16:47.190Z,4.45
2022-08-05T13:19:16.061Z,4.95
2022-08-05T13:21:48.171Z,3.17
2022-08-05T13:24:36.306Z,4.00
2022-08-05T13:27:11.047Z,3.85
2022-08-05T13:30:31.487Z,5.10
2022-08-05T13:32:33.986Z,4.88
2022-08-05T13:35:04.326Z,4.63
2022-08-05T13:37:34.923Z,4.50
2022-08-05T13:40:16.128Z,4.80
2022-08-05T13:42:47.221Z,2.35
2022-08-05T13:45:14.197Z,6.75
2022-08-05T13:48:08.898Z,3.47
2022-08-05T13:50:35.216Z,3.50
2022-08-05T13:53:02.166Z,4.65
2022-08-05T13:55:41.857Z,7.95
2022-08-05T13:58:30.212Z,4.75
2022-08-05T14:00:58.601Z,3.42
2022-08-05T14:03:30.184Z,5.97
2022-08-05T14:06:25.311Z,3.95
2022-08-05T14:08:46.658Z,2.78
2022-08-05T14:11:20.646Z,6.07
2022-08-05T14:13:48.949Z,5.82
2022-08-05T14:16:22.586Z,3.70
2022-08-05T14:18:49.579Z,5.47
2022-08-05T14:22:07.345Z,3.95
2022-08-05T14:24:04.309Z,5.10
2022-08-05T14:26:36.957Z,4.50
2022-08-05T14:29:15.711Z,4.90
2022-08-05T14:32:03.250Z,5.72
2022-08-05T14:34:34.987Z,3.70
2022-08-05T14:37:04.582Z,4.93
2022-08-05T14:39:49.560Z,4.80
2022-08-05T14:42:20.992Z,4.03
2022-08-05T14:44:49.209Z,3.53
2022-08-05T14:47:16.238Z,6.55
2022-08-05T14:50:12.818Z,4.95
2022-08-05T14:52:52.900Z,7.07
2022-08-05T14:55:20.684Z,4.45
2022-08-05T14:57:55.902Z,3.88
2022-08-05T15:00:28.057Z,5.22
2022-08-05T15:02:56.862Z,3.00
2022-08-05T15:05:29.851Z,4.07
2022-08-05T15:08:10.765Z,3.63
2022-08-05T15:10:41.415Z,9.37
2022-08-05T15:13:09.907Z,3.50
2022-08-05T15:15:54.535Z,4.68
2022-08-05T15:18:23.625Z,5.90
2022-08-05T15:20:51.025Z,6.93
2022-08-05T15:23:18.119Z,6.57
2022-08-05T15:25:52.679Z,4.95
2022-08-05T15:28:27.744Z,3.45
2022-08-05T15:30:55.256Z,4.28
2022-08-05T15:34:04.738Z,3.17
2022-08-05T15:36:17.829Z,3.85
2022-08-05T15:40:41.546Z,4.25
2022-08-05T15:41:58.352Z,6.65
2022-08-05T15:44:27.765Z,3.88
2022-08-05T15:46:55.793Z,6.63
2022-08-05T15:49:40.785Z,3.85
2022-08-05T15:52:16.250Z,5.18
2022-08-05T15:54:44.141Z,2.53
2022-08-05T15:57:11.713Z,5.85
2022-08-05T15:59:39.990Z,2.80
2022-08-05T16:02:09.428Z,2.63
2022-08-05T16:04:41.358Z,3.67
2022-08-05T16:07:10.767Z,4.00
2022-08-05T16:09:37.848Z,6.20
2022-08-05T16:12:09.592Z,2.08
2022-08-05T16:14:38.408Z,3.38
2022-08-05T16:17:05.400Z,3.55
2022-08-05T16:20:05.350Z,2.38
2022-08-05T16:22:27.444Z,1.60
2022-08-05T16:25:00.734Z,2.10
2022-08-05T16:27:47.055Z,2.63
2022-08-05T16:30:26.696Z,3.15
2022-08-05T16:32:56.131Z,5.85
2022-08-05T16:35:27.887Z,1.30
2022-08-05T16:38:02.364Z,2.72
2022-08-05T16:40:47.910Z,2.05
2022-08-05T16:43:23.674Z,4.05
2022-08-05T16:46:04.728Z,5.25
2022-08-05T16:48:38.577Z,2.42
2022-08-05T16:51:09.423Z,2.83
2022-08-05T16:54:04.773Z,5.00
2022-08-05T16:56:30.735Z,1.65
2022-08-05T16:58:58.848Z,4.28
2022-08-05T17:01:28.088Z,1.15
2022-08-05T17:04:15.223Z,0.70
2022-08-05T17:06:42.208Z,2.88
2022-08-05T17:09:09.513Z,1.30
2022-08-05T17:11:48.363Z,4.82
2022-08-05T17:14:34.073Z,1.85
2022-08-05T17:17:02.608Z,1.65
2022-08-05T17:19:29.656Z,1.40
2022-08-05T17:21:58.383Z,4.38
2022-08-05T17:24:35.062Z,1.20
2022-08-05T17:27:05.991Z,4.28
2022-08-05T17:29:41.150Z,2.53
2022-08-05T17:32:17.437Z,4.22
2022-08-05T17:34:47.826Z,2.35
2022-08-05T17:37:39.377Z,2.85
2022-08-05T17:40:10.293Z,4.07
2022-08-05T17:42:41.331Z,1.52
2022-08-05T17:45:20.208Z,2.22
2022-08-05T17:47:53.386Z,0.80
2022-08-05T17:53:00.820Z,1.67
2022-08-05T17:55:38.449Z,3.55
2022-08-05T17:58:09.866Z,1.80
2022-08-05T18:00:40.857Z,1.35
2022-08-05T18:03:12.162Z,5.22
2022-08-05T18:06:03.909Z,1.83
2022-08-05T18:08:33.301Z,1.20
2022-08-05T18:11:01.114Z,2.00
2022-08-05T18:13:36.660Z,2.53
2022-08-05T18:16:13.350Z,2.15
2022-08-05T18:18:41.559Z,3.03
2022-08-05T18:21:19.959Z,5.45
2022-08-05T18:23:53.892Z,2.92
2022-08-05T18:26:29.105Z,3.55
2022-08-05T18:28:57.211Z,1.95
2022-08-05T18:31:24.504Z,3.10
2022-08-05T18:33:52.197Z,3.25
2022-08-05T18:36:19.553Z,2.92
2022-08-05T18:38:46.796Z,3.22
2022-08-05T18:41:55.077Z,1.70
2022-08-05T18:44:05.485Z,1.90
2022-08-05T18:49:20.446Z,3.15
2022-08-05T18:52:09.026Z,2.63
2022-08-05T18:54:41.317Z,4.15
2022-08-05T18:57:15.396Z,4.18
2022-08-05T19:00:01.356Z,2.08
2022-08-05T19:02:29.778Z,4.07
2022-08-05T19:05:02.446Z,2.15
2022-08-05T19:07:47.862Z,4.75
2022-08-05T19:10:26.529Z,1.08
2022-08-05T19:12:54.744Z,4.63
2022-08-05T19:15:57.983Z,2.75
2022-08-05T19:18:13.522Z,2.05
2022-08-05T19:20:48.872Z,2.00
2022-08-05T19:24:03.670Z,0.80
2022-08-05T19:26:03.175Z,1.75
2022-08-05T19:28:31.234Z,4.97
2022-08-05T19:31:01.010Z,1.27
2022-08-05T19:33:35.491Z,2.60
2022-08-05T19:36:06.516Z,2.30
2022-08-05T19:38:35.573Z,1.33
2022-08-05T19:41:06.817Z,1.48
2022-08-05T19:46:30.639Z,4.22
2022-08-05T19:49:03.499Z,1.90
2022-08-05T19:52:09.395Z,4.72
2022-08-05T19:54:31.039Z,2.25
2022-08-05T19:56:59.860Z,3.75
2022-08-05T20:00:01.079Z,3.47
2022-08-05T20:02:17.642Z,1.98
2022-08-05T20:04:46.236Z,3.20
2022-08-05T20:07:16.064Z,4.88
2022-08-05T20:10:11.782Z,3.05
2022-08-05T20:12:46.350Z,3.33
2022-08-05T20:15:23.048Z,4.30
2022-08-05T20:18:09.830Z,2.63
2022-08-05T20:20:47.329Z,3.17
2022-08-05T20:23:14.569Z,4.20
2022-08-05T20:25:42.039Z,2.85
2022-08-05T20:28:13.541Z,2.20
2022-08-05T20:30:40.794Z,1.17
2022-08-05T20:33:08.851Z,2.05
2022-08-05T20:35:40.544Z,3.20
2022-08-05T20:38:20.025Z,1.65
2022-08-05T20:40:53.676Z,1.52
2022-08-05T20:43:33.105Z,1.98
2022-08-05T20:46:10.261Z,2.13
2022-08-05T20:48:39.610Z,4.72
2022-08-05T20:51:09.176Z,2.35
2022-08-05T20:53:40.919Z,2.83
2022-08-05T20:56:09.721Z,1.45
2022-08-05T20:58:37.176Z,2.22
2022-08-05T21:01:04.736Z,2.75
2022-08-05T21:03:34.191Z,4.88
2022-08-05T21:06:01.976Z,4.45
2022-08-05T21:08:42.040Z,2.15
2022-08-05T21:11:12.687Z,2.60
2022-08-05T21:13:48.131Z,4.22
2022-08-05T21:16:29.525Z,3.22
2022-08-05T21:19:00.148Z,4.30
2022-08-05T21:21:39.365Z,3.22
2022-08-05T21:24:12.939Z,1.13
2022-08-05T21:26:41.214Z,1.08
2022-08-05T21:29:16.530Z,6.25
2022-08-05T21:31:43.887Z,1.77
2022-08-05T21:34:11.336Z,3.72
2022-08-05T21:36:39.282Z,4.03
2022-08-05T21:39:10.184Z,2.33
2022-08-05T21:41:42.063Z,1.20
2022-08-05T21:44:26.987Z,3.80
2022-08-05T21:46:54.105Z,2.30
2022-08-05T21:50:00.007Z,3.65
2022-08-05T21:52:16.387Z,4.25
2022-08-05T21:54:55.190Z,2.38
2022-08-05T21:57:42.497Z,1.30
2022-08-05T22:00:11.750Z,3.67
2022-08-05T22:02:42.904Z,5.38
2022-08-05T22:05:11.733Z,2.28
2022-08-05T22:07:59.116Z,2.30
2022-08-05T22:10:27.571Z,3.15
2022-08-05T22:12:57.464Z,5.40
2022-08-05T22:16:01.748Z,3.78
2022-08-05T22:18:14.602Z,2.47
2022-08-05T22:20:42.018Z,5.70
2022-08-05T22:24:03.094Z,6.03
2022-08-05T22:26:35.095Z,4.07
2022-08-05T22:29:02.869Z,4.00
2022-08-05T22:31:31.616Z,5.03
2022-08-05T22:34:20.176Z,2.30
2022-08-05T22:36:58.400Z,2.38
2022-08-05T22:39:32.583Z,2.55
2022-08-05T22:42:10.312Z,6.95
2022-08-05T22:44:40.633Z,2.88
2022-08-05T22:47:09.719Z,2.03
2022-08-05T22:50:19.431Z,2.80
2022-08-05T22:52:32.711Z,3.75
2022-08-05T22:55:04.360Z,3.17
2022-08-05T22:57:46.869Z,1.25
2022-08-05T23:00:18.441Z,5.80
2022-08-05T23:02:49.098Z,3.40
2022-08-05T23:05:16.891Z,3.70
2022-08-05T23:07:49.555Z,3.92
2022-08-05T23:10:20.016Z,2.65
2022-08-05T23:12:54.230Z,5.07
2022-08-05T23:15:29.039Z,4.85
2022-08-05T23:18:01.601Z,2.22
2022-08-05T23:20:32.238Z,3.05
2022-08-05T23:22:59.996Z,3.15
2022-08-05T23:25:51.634Z,2.50
2022-08-05T23:28:15.782Z,6.18
2022-08-05T23:30:53.583Z,2.17
2022-08-05T23:34:02.897Z,6.47
2022-08-05T23:36:10.002Z,1.85
2022-08-05T23:38:37.675Z,3.05
2022-08-05T23:41:04.666Z,5.90
2022-08-05T23:43:37.267Z,3.05
2022-08-05T23:46:21.962Z,2.85
2022-08-05T23:48:59.751Z,4.47
2022-08-05T23:51:52.560Z,5.90
2022-08-05T23:54:25.705Z,2.30
2022-08-05T23:56:55.398Z,1.75
2022-08-05T23:59:37.785Z,3.17
